createdAt,value
2022-12-22T00:00:21.654Z,89.49
2022-12-22T00:05:22.309Z,89.58
2022-12-22T00:10:17.744Z,89.40
2022-12-22T00:15:22.371Z,89.25
2022-12-22T00:20:21.572Z,89.80
2022-12-22T00:25:17.186Z,90.08
2022-12-22T00:30:21.995Z,89.78
2022-12-22T00:35:22.227Z,90.14
2022-12-22T00:40:25.773Z,90.38
2022-12-22T00:45:16.768Z,90.28
2022-12-22T00:50:17.537Z,90.31
2022-12-22T00:55:22.283Z,89.38
2022-12-22T01:00:24.679Z,89.98
2022-12-22T01:05:16.984Z,89.87
2022-12-22T01:10:21.914Z,89.88
2022-12-22T01:15:20.579Z,89.79
2022-12-22T01:20:17.164Z,90.12
2022-12-22T01:25:20.541Z,90.00
2022-12-22T01:30:17.430Z,89.83
2022-12-22T01:35:26.603Z,89.80
2022-12-22T01:40:23.100Z,89.76
2022-12-22T01:45:29.611Z,89.64
2022-12-22T01:50:16.900Z,90.20
2022-12-22T01:55:22.054Z,90.43
2022-12-22T02:00:16.964Z,90.39
2022-12-22T02:05:19.861Z,89.92
2022-12-22T02:10:26.604Z,90.14
2022-12-22T02:15:22.090Z,90.06
2022-12-22T02:20:34.027Z,90.33
2022-12-22T02:25:22.703Z,90.23
2022-12-22T02:30:18.873Z,90.71
2022-12-22T02:35:20.934Z,90.67
2022-12-22T02:40:24.449Z,90.40
2022-12-22T02:45:24.462Z,90.19
2022-12-22T02:50:26.641Z,90.20
2022-12-22T02:55:17.355Z,90.48
2022-12-22T03:00:16.881Z,91.07
2022-12-22T03:05:16.129Z,91.06
2022-12-22T03:10:18.183Z,91.10
2022-12-22T03:15:16.348Z,91.12
2022-12-22T03:20:16.977Z,91.13
2022-12-22T03:25:17.023Z,91.01
2022-12-22T03:30:08.328Z,90.75
2022-12-22T03:35:07.061Z,90.58
2022-12-22T03:40:07.449Z,90.57
2022-12-22T03:45:18.944Z,90.43
2022-12-22T03:50:06.615Z,90.48
2022-12-22T03:55:06.910Z,91.04
2022-12-22T04:00:08.000Z,91.15
2022-12-22T04:05:06.535Z,90.89
2022-12-22T04:10:17.234Z,90.70
2022-12-22T04:15:06.898Z,91.07
2022-12-22T04:20:06.987Z,90.94
2022-12-22T04:25:07.336Z,91.19
2022-12-22T04:30:07.730Z,90.90
2022-12-22T04:35:07.768Z,90.58
2022-12-22T04:40:06.865Z,90.56
2022-12-22T04:45:06.823Z,90.27
2022-12-22T04:50:06.833Z,90.23
2022-12-22T04:55:08.303Z,89.86
2022-12-22T05:00:08.201Z,89.67
2022-12-22T05:05:07.387Z,89.68
2022-12-22T05:10:07.045Z,89.59
2022-12-22T05:15:06.879Z,89.58
2022-12-22T05:20:07.830Z,89.66
2022-12-22T05:25:06.817Z,89.58
2022-12-22T05:30:06.917Z,89.84
2022-12-22T05:35:07.463Z,89.83
2022-12-22T05:40:07.892Z,90.00
2022-12-22T05:45:11.430Z,89.83
2022-12-22T05:50:08.004Z,89.71
2022-12-22T05:55:06.802Z,89.32
2022-12-22T06:00:09.094Z,89.46
2022-12-22T06:05:07.410Z,89.63
2022-12-22T06:10:12.234Z,89.50
2022-12-22T06:15:07.812Z,89.35
2022-12-22T06:20:08.067Z,89.17
2022-12-22T06:25:06.349Z,89.28
2022-12-22T06:30:07.046Z,89.32
2022-12-22T06:35:08.725Z,89.47
2022-12-22T06:40:06.892Z,89.84
2022-12-22T06:45:06.871Z,89.75
2022-12-22T06:50:07.689Z,89.69
2022-12-22T06:55:06.806Z,89.48
2022-12-22T07:00:06.944Z,89.57
2022-12-22T07:05:07.187Z,89.49
2022-12-22T07:10:06.854Z,89.39
2022-12-22T07:15:07.553Z,89.18
2022-12-22T07:20:07.356Z,89.02
2022-12-22T07:25:07.131Z,89.00
2022-12-22T07:30:06.689Z,88.93
2022-12-22T07:35:06.578Z,88.91
2022-12-22T07:40:08.142Z,88.90
2022-12-22T07:45:06.551Z,88.90
2022-12-22T07:50:16.648Z,88.80
2022-12-22T07:55:07.777Z,88.62
2022-12-22T08:00:06.764Z,88.50
2022-12-22T08:05:07.467Z,88.22
2022-12-22T08:10:07.349Z,87.88
2022-12-22T08:15:07.235Z,87.47
2022-12-22T08:20:06.544Z,85.85
2022-12-22T08:25:06.272Z,83.77
2022-12-22T08:30:08.002Z,84.32
2022-12-22T08:35:08.776Z,84.36
2022-12-22T08:40:10.534Z,83.61
2022-12-22T08:45:08.277Z,83.42
2022-12-22T08:50:06.966Z,82.53
2022-12-22T08:55:06.859Z,82.55
2022-12-22T09:00:08.296Z,82.80
2022-12-22T09:05:06.315Z,82.68
2022-12-22T09:10:06.999Z,82.20
2022-12-22T09:15:07.914Z,81.24
2022-12-22T09:20:07.584Z,64.21
2022-12-22T09:25:07.163Z,65.56
2022-12-22T09:30:07.225Z,70.68
2022-12-22T09:35:06.256Z,73.98
2022-12-22T09:40:06.638Z,73.00
2022-12-22T09:45:18.885Z,75.45
2022-12-22T09:50:11.272Z,76.78
2022-12-22T09:55:13.260Z,77.54
2022-12-22T10:00:12.373Z,77.12
2022-12-22T10:05:17.115Z,76.47
2022-12-22T10:10:07.242Z,76.73
2022-12-22T10:15:09.651Z,72.69
2022-12-22T10:20:18.081Z,74.92
2022-12-22T10:25:24.300Z,76.20
2022-12-22T10:30:16.731Z,76.91
2022-12-22T10:35:06.650Z,76.89
2022-12-22T10:40:15.892Z,77.92
2022-12-22T10:45:07.368Z,78.39
2022-12-22T10:50:07.068Z,78.81
2022-12-22T10:55:16.231Z,79.49
2022-12-22T11:00:22.233Z,79.72
2022-12-22T11:05:08.366Z,79.84
2022-12-22T11:10:16.682Z,80.20
2022-12-22T11:15:18.565Z,80.53
2022-12-22T11:20:25.261Z,81.12
2022-12-22T11:25:21.764Z,81.29
2022-12-22T11:30:11.000Z,81.32
2022-12-22T11:35:15.971Z,81.51
2022-12-22T11:40:16.246Z,81.03
2022-12-22T11:45:18.845Z,80.72
2022-12-22T11:50:59.613Z,80.36
2022-12-22T11:55:16.175Z,79.88
2022-12-22T12:00:10.147Z,79.59
2022-12-22T12:05:21.606Z,79.83
2022-12-22T12:10:14.863Z,79.68
2022-12-22T12:15:20.004Z,80.05
2022-12-22T12:20:20.685Z,80.31
2022-12-22T12:25:25.837Z,79.96
2022-12-22T12:30:37.585Z,79.58
2022-12-22T12:35:23.653Z,80.33
2022-12-22T12:40:24.901Z,80.95
2022-12-22T12:45:25.705Z,81.48
2022-12-22T12:50:25.498Z,81.68
2022-12-22T12:55:29.739Z,81.67
2022-12-22T13:00:25.725Z,81.60
2022-12-22T13:05:25.535Z,81.46
2022-12-22T13:10:07.184Z,81.47
2022-12-22T13:15:25.815Z,81.27
2022-12-22T13:20:12.131Z,81.39
2022-12-22T13:25:13.645Z,81.76
2022-12-22T13:30:13.209Z,81.96
2022-12-22T13:35:31.041Z,82.64
2022-12-22T13:40:08.510Z,82.83
2022-12-22T13:45:13.963Z,83.29
2022-12-22T13:50:15.766Z,83.49
2022-12-22T13:55:11.707Z,83.44
2022-12-22T14:00:18.232Z,83.46
2022-12-22T14:05:07.827Z,83.69
2022-12-22T14:10:07.126Z,84.14
2022-12-22T14:15:15.953Z,84.08
2022-12-22T14:20:17.714Z,84.59
2022-12-22T14:25:12.425Z,84.72
2022-12-22T14:30:15.887Z,85.22
2022-12-22T14:35:20.501Z,85.34
2022-12-22T14:40:13.091Z,85.62
2022-12-22T14:45:13.545Z,85.85
2022-12-22T14:50:17.024Z,85.51
2022-12-22T14:55:25.516Z,85.66
2022-12-22T15:00:18.986Z,85.44
2022-12-22T15:05:08.113Z,85.50
2022-12-22T15:10:16.033Z,86.06
2022-12-22T15:15:12.393Z,85.82
2022-12-22T15:20:13.058Z,85.88
2022-12-22T15:25:12.217Z,86.12
2022-12-22T15:30:07.201Z,86.53
2022-12-22T15:35:14.937Z,86.48
2022-12-22T15:40:11.829Z,86.57
2022-12-22T15:45:06.262Z,86.53
2022-12-22T15:50:07.244Z,86.48
2022-12-22T15:55:06.019Z,86.81
2022-12-22T16:00:06.350Z,86.70
2022-12-22T16:05:06.970Z,87.23
2022-12-22T16:10:16.287Z,87.19
2022-12-22T16:15:12.518Z,87.04
2022-12-22T16:20:06.614Z,87.22
2022-12-22T16:25:12.534Z,87.18
2022-12-22T16:30:06.795Z,87.37
2022-12-22T16:35:15.137Z,87.34
2022-12-22T16:40:06.821Z,87.34
2022-12-22T16:45:17.388Z,87.30
2022-12-22T16:50:16.000Z,88.27
2022-12-22T16:55:12.562Z,88.09
2022-12-22T17:00:06.335Z,88.17
2022-12-22T17:05:18.811Z,88.42
2022-12-22T17:10:13.493Z,88.12
2022-12-22T17:15:06.227Z,88.10
2022-12-22T17:20:08.732Z,87.66
2022-12-22T17:25:07.641Z,87.90
2022-12-22T17:30:17.963Z,87.97
2022-12-22T17:35:06.146Z,87.92
2022-12-22T17:40:07.011Z,88.06
2022-12-22T17:45:12.933Z,88.35
2022-12-22T17:50:08.668Z,88.10
2022-12-22T17:55:16.187Z,88.27
2022-12-22T18:00:18.285Z,88.20
2022-12-22T18:05:11.321Z,88.39
2022-12-22T18:10:20.112Z,88.92
2022-12-22T18:15:14.036Z,88.89
2022-12-22T18:20:11.539Z,88.60
2022-12-22T18:25:14.446Z,88.67
2022-12-22T18:30:13.383Z,88.97
2022-12-22T18:35:06.014Z,88.59
2022-12-22T18:40:26.272Z,88.71
2022-12-22T18:45:12.632Z,88.57
2022-12-22T18:50:12.826Z,88.40
2022-12-22T18:55:14.450Z,88.33
2022-12-22T19:00:13.796Z,88.14
2022-12-22T19:05:13.289Z,88.09
2022-12-22T19:10:07.394Z,88.06
2022-12-22T19:15:11.505Z,87.82
2022-12-22T19:20:14.402Z,87.75
2022-12-22T19:25:06.023Z,87.46
2022-12-22T19:30:09.612Z,87.27
2022-12-22T19:35:12.498Z,87.15
2022-12-22T19:40:06.295Z,86.94
2022-12-22T19:45:21.222Z,86.87
2022-12-22T19:50:13.553Z,86.52
2022-12-22T19:55:05.688Z,86.52
2022-12-22T20:00:12.751Z,86.34
2022-12-22T20:05:15.470Z,86.23
2022-12-22T20:10:06.297Z,86.14
2022-12-22T20:15:14.918Z,85.82
2022-12-22T20:20:06.581Z,85.64
2022-12-22T20:25:06.010Z,85.36
2022-12-22T20:30:06.191Z,85.29
2022-12-22T20:35:05.779Z,85.14
2022-12-22T20:40:20.854Z,84.96
2022-12-22T20:45:05.501Z,84.89
2022-12-22T20:50:15.477Z,84.97
2022-12-22T20:55:05.671Z,84.96
2022-12-22T21:00:06.447Z,84.94
2022-12-22T21:05:05.960Z,84.89
2022-12-22T21:10:06.304Z,84.83
2022-12-22T21:15:06.565Z,84.78
2022-12-22T21:20:06.340Z,84.80
2022-12-22T21:25:07.267Z,84.94
2022-12-22T21:30:13.378Z,84.72
2022-12-22T21:35:07.941Z,84.70
2022-12-22T21:40:16.264Z,84.80
2022-12-22T21:45:07.429Z,84.73
2022-12-22T21:50:08.171Z,84.77
2022-12-22T21:55:06.325Z,85.00
2022-12-22T22:00:06.671Z,85.54
2022-12-22T22:05:06.114Z,86.12
2022-12-22T22:10:05.967Z,86.96
2022-12-22T22:15:07.245Z,87.28
2022-12-22T22:20:09.842Z,87.56
2022-12-22T22:25:06.221Z,88.58
2022-12-22T22:30:12.239Z,88.81
2022-12-22T22:35:05.737Z,89.08
2022-12-22T22:40:08.295Z,89.18
2022-12-22T22:45:07.141Z,90.10
2022-12-22T22:50:07.879Z,89.62
2022-12-22T22:55:05.774Z,90.09
2022-12-22T23:00:08.960Z,90.50
2022-12-22T23:05:06.505Z,91.02
2022-12-22T23:10:06.653Z,91.67
2022-12-22T23:15:06.611Z,91.81
2022-12-22T23:20:07.042Z,92.06
2022-12-22T23:25:05.553Z,92.90
2022-12-22T23:30:07.062Z,93.08
2022-12-22T23:35:06.123Z,92.96
2022-12-22T23:40:51.174Z,93.31
2022-12-22T23:45:06.667Z,93.57
2022-12-22T23:50:06.659Z,93.38
2022-12-22T23:55:06.524Z,93.91
